createdAt,value
2022-12-24T00:01:53.967Z,73.81
2022-12-24T00:04:23.045Z,73.53
2022-12-24T00:06:52.301Z,73.29
2022-12-24T00:09:21.442Z,73.22
2022-12-24T00:11:50.689Z,73.48
2022-12-24T00:14:21.286Z,73.61
2022-12-24T00:16:50.819Z,73.84
2022-12-24T00:19:19.913Z,74.56
2022-12-24T00:21:49.513Z,74.42
2022-12-24T00:24:18.679Z,74.07
2022-12-24T00:26:48.068Z,74.16
2022-12-24T00:29:17.469Z,73.98
2022-12-24T00:31:48.092Z,74.31
2022-12-24T00:34:17.069Z,74.01
2022-12-24T00:36:46.488Z,73.93
2022-12-24T00:39:15.697Z,73.82
2022-12-24T00:41:45.039Z,73.54
2022-12-24T00:44:14.218Z,73.85
2022-12-24T00:46:43.849Z,73.63
2022-12-24T00:49:14.777Z,73.71
2022-12-24T00:51:44.099Z,73.85
2022-12-24T00:54:14.600Z,74.07
2022-12-24T00:56:44.080Z,73.73
2022-12-24T00:59:13.055Z,73.57
2022-12-24T01:01:42.695Z,73.84
2022-12-24T01:04:30.690Z,73.86
2022-12-24T01:07:00.307Z,73.31
2022-12-24T01:09:29.306Z,73.18
2022-12-24T01:11:58.788Z,73.26
2022-12-24T01:14:27.887Z,73.07
2022-12-24T01:16:57.139Z,73.12
2022-12-24T01:19:27.752Z,72.92
2022-12-24T01:21:57.167Z,73.01
2022-12-24T01:24:26.110Z,73.09
2022-12-24T01:26:55.425Z,73.84
2022-12-24T01:29:24.522Z,73.79
2022-12-24T01:31:53.860Z,73.60
2022-12-24T01:34:22.979Z,73.47
2022-12-24T01:36:53.593Z,73.64
2022-12-24T01:39:22.586Z,73.67
2022-12-24T01:42:09.157Z,73.66
2022-12-24T01:44:43.151Z,73.74
2022-12-24T01:47:17.208Z,73.68
2022-12-24T01:49:52.568Z,74.39
2022-12-24T01:52:26.944Z,74.22
2022-12-24T01:54:59.901Z,74.25
2022-12-24T01:57:31.519Z,74.12
2022-12-24T02:00:05.069Z,74.03
2022-12-24T02:02:36.884Z,74.01
2022-12-24T02:05:11.152Z,73.83
2022-12-24T02:07:42.411Z,74.05
2022-12-24T02:10:13.947Z,75.14
2022-12-24T02:12:45.123Z,75.01
2022-12-24T02:15:20.235Z,74.92
2022-12-24T02:17:57.010Z,75.17
2022-12-24T02:21:04.070Z,74.88
2022-12-24T02:24:13.277Z,74.74
2022-12-24T02:27:03.534Z,74.61
2022-12-24T02:30:03.144Z,74.29
2022-12-24T02:32:46.300Z,74.40
2022-12-24T02:35:20.693Z,74.83
2022-12-24T02:37:52.824Z,74.80
2022-12-24T02:40:26.244Z,74.54
2022-12-24T02:43:00.575Z,74.78
2022-12-24T02:45:32.911Z,74.66
2022-12-24T02:48:03.940Z,75.25
2022-12-24T02:50:33.407Z,74.76
2022-12-24T02:53:02.464Z,74.84
2022-12-24T02:55:41.091Z,74.85
2022-12-24T02:58:26.242Z,75.28
2022-12-24T03:01:17.359Z,75.05
2022-12-24T03:04:01.385Z,75.06
2022-12-24T03:06:42.262Z,75.26
2022-12-24T03:09:18.264Z,75.45
2022-12-24T03:11:55.660Z,75.54
2022-12-24T03:14:26.363Z,75.56
2022-12-24T03:16:56.248Z,75.35
2022-12-24T03:19:27.756Z,75.71
2022-12-24T03:22:00.592Z,75.56
2022-12-24T03:24:29.891Z,75.75
2022-12-24T03:27:00.882Z,75.68
2022-12-24T03:29:29.968Z,75.47
2022-12-24T03:32:03.470Z,75.35
2022-12-24T03:34:34.111Z,75.41
2022-12-24T03:37:04.324Z,75.29
2022-12-24T03:39:33.394Z,75.95
2022-12-24T03:42:02.820Z,75.55
2022-12-24T03:44:31.819Z,75.71
2022-12-24T03:47:01.135Z,75.75
2022-12-24T03:49:30.154Z,75.08
2022-12-24T03:52:00.778Z,74.73
2022-12-24T03:54:29.977Z,74.99
2022-12-24T03:56:59.313Z,74.35
2022-12-24T03:59:28.893Z,74.42
2022-12-24T04:01:58.248Z,73.94
2022-12-24T04:04:27.654Z,74.71
2022-12-24T04:06:56.921Z,73.99
2022-12-24T04:09:27.424Z,74.43
2022-12-24T04:11:56.849Z,74.20
2022-12-24T04:14:26.095Z,74.56
2022-12-24T04:16:55.529Z,74.96
2022-12-24T04:19:24.547Z,74.38
2022-12-24T04:21:53.799Z,74.06
2022-12-24T04:24:22.770Z,74.01
2022-12-24T04:26:53.603Z,73.79
2022-12-24T04:29:22.770Z,73.65
2022-12-24T04:31:52.180Z,74.18
2022-12-24T04:34:21.217Z,74.18
2022-12-24T04:36:50.622Z,74.32
2022-12-24T04:39:19.785Z,74.23
2022-12-24T04:41:49.069Z,74.43
2022-12-24T04:44:19.507Z,74.44
2022-12-24T04:46:49.117Z,74.16
2022-12-24T04:49:18.256Z,74.29
2022-12-24T04:51:47.530Z,74.11
2022-12-24T04:54:16.683Z,74.18
2022-12-24T04:56:45.963Z,74.16
2022-12-24T04:59:15.047Z,74.62
2022-12-24T05:01:45.856Z,75.01
2022-12-24T05:04:15.060Z,74.64
2022-12-24T05:06:44.345Z,74.69
2022-12-24T05:09:14.220Z,75.32
2022-12-24T05:11:43.471Z,75.19
2022-12-24T05:14:12.741Z,75.22
2022-12-24T05:16:42.070Z,75.61
2022-12-24T05:19:12.758Z,75.05
2022-12-24T05:21:42.162Z,75.12
2022-12-24T05:24:30.530Z,75.18
2022-12-24T05:27:00.714Z,75.61
2022-12-24T05:29:29.792Z,75.51
2022-12-24T05:31:59.073Z,75.41
2022-12-24T05:34:29.449Z,74.94
2022-12-24T05:36:58.806Z,75.31
2022-12-24T05:39:27.778Z,75.17
2022-12-24T05:41:57.149Z,75.09
2022-12-24T05:44:26.146Z,75.28
2022-12-24T05:46:55.557Z,75.40
2022-12-24T05:49:24.624Z,75.25
2022-12-24T05:51:55.423Z,74.95
2022-12-24T05:54:24.692Z,74.83
2022-12-24T05:56:53.928Z,74.75
2022-12-24T05:59:22.993Z,75.05
2022-12-24T06:01:52.314Z,74.87
2022-12-24T06:04:28.241Z,74.65
2022-12-24T06:06:59.573Z,74.79
2022-12-24T06:09:28.542Z,75.01
2022-12-24T06:11:57.911Z,74.64
2022-12-24T06:14:26.940Z,75.59
2022-12-24T06:16:56.340Z,74.81
2022-12-24T06:19:25.706Z,74.84
2022-12-24T06:21:55.035Z,75.26
2022-12-24T06:24:25.697Z,75.47
2022-12-24T06:26:55.119Z,75.29
2022-12-24T06:29:25.627Z,74.66
2022-12-24T06:31:56.527Z,74.10
2022-12-24T06:34:25.538Z,74.00
2022-12-24T06:36:54.962Z,74.23
2022-12-24T06:39:26.973Z,73.87
2022-12-24T06:41:56.395Z,73.99
2022-12-24T06:44:26.538Z,74.39
2022-12-24T06:46:55.961Z,74.28
2022-12-24T06:49:25.026Z,74.39
2022-12-24T06:51:54.520Z,73.94
2022-12-24T06:54:23.525Z,73.70
2022-12-24T06:56:57.605Z,73.85
2022-12-24T06:59:27.002Z,74.05
2022-12-24T07:01:56.691Z,74.45
2022-12-24T07:04:26.002Z,74.62
2022-12-24T07:06:55.397Z,74.55
2022-12-24T07:09:24.651Z,74.41
2022-12-24T07:11:55.383Z,74.53
2022-12-24T07:14:24.494Z,74.62
2022-12-24T07:16:58.976Z,74.59
2022-12-24T07:19:28.626Z,74.47
2022-12-24T07:21:57.910Z,74.71
2022-12-24T07:24:27.146Z,74.86
2022-12-24T07:26:57.763Z,75.39
2022-12-24T07:29:26.901Z,75.82
2022-12-24T07:31:56.258Z,76.97
2022-12-24T07:34:25.458Z,76.46
2022-12-24T07:36:54.909Z,76.18
2022-12-24T07:39:24.350Z,77.00
2022-12-24T07:41:53.626Z,76.43
2022-12-24T07:44:24.173Z,77.08
2022-12-24T07:46:53.525Z,76.87
2022-12-24T07:49:22.703Z,76.57
2022-12-24T07:51:52.012Z,76.28
2022-12-24T07:54:21.136Z,76.93
2022-12-24T07:56:50.389Z,76.50
2022-12-24T07:59:19.364Z,76.24
2022-12-24T08:01:50.155Z,76.46
2022-12-24T08:04:19.475Z,76.41
2022-12-24T08:06:48.825Z,75.92
2022-12-24T08:09:17.998Z,76.39
2022-12-24T08:11:52.007Z,75.97
2022-12-24T08:14:22.050Z,76.10
2022-12-24T08:16:52.794Z,75.98
2022-12-24T08:19:22.930Z,75.58
2022-12-24T08:21:52.456Z,75.60
2022-12-24T08:24:21.600Z,75.29
2022-12-24T08:26:50.867Z,75.30
2022-12-24T08:29:19.957Z,75.45
2022-12-24T08:31:49.301Z,75.70
2022-12-24T08:34:19.852Z,76.14
2022-12-24T08:36:49.088Z,76.04
2022-12-24T08:39:18.243Z,77.58
2022-12-24T08:41:47.489Z,77.88
2022-12-24T08:44:16.541Z,77.45
2022-12-24T08:46:46.608Z,77.01
2022-12-24T08:49:16.081Z,76.92
2022-12-24T08:51:46.714Z,76.68
2022-12-24T08:54:16.132Z,77.10
2022-12-24T08:56:45.431Z,77.10
2022-12-24T08:59:14.593Z,76.27
2022-12-24T09:01:44.040Z,76.47
2022-12-24T09:04:13.344Z,76.81
2022-12-24T09:06:42.776Z,76.50
2022-12-24T09:09:13.278Z,76.69
2022-12-24T09:11:42.580Z,76.64
2022-12-24T09:14:11.715Z,76.70
2022-12-24T09:16:41.111Z,76.61
2022-12-24T09:19:10.289Z,76.50
2022-12-24T09:21:39.929Z,76.81
2022-12-24T09:24:09.499Z,76.64
2022-12-24T09:26:42.707Z,76.19
2022-12-24T09:29:12.562Z,76.10
2022-12-24T09:31:42.071Z,76.24
2022-12-24T09:34:11.295Z,76.68
2022-12-24T09:36:40.554Z,76.78
2022-12-24T09:39:10.255Z,76.13
2022-12-24T09:41:48.780Z,76.42
2022-12-24T09:44:30.565Z,75.98
2022-12-24T09:47:09.928Z,75.96
2022-12-24T09:49:43.372Z,76.39
2022-12-24T09:52:16.290Z,76.64
2022-12-24T09:54:51.606Z,76.24
2022-12-24T09:57:27.954Z,76.21
2022-12-24T09:59:57.593Z,76.18
2022-12-24T10:02:27.101Z,76.26
2022-12-24T10:04:57.080Z,76.64
2022-12-24T10:07:38.336Z,76.57
2022-12-24T10:10:19.592Z,76.45
2022-12-24T10:12:59.302Z,76.73
2022-12-24T10:15:32.515Z,77.16
2022-12-24T10:18:19.287Z,77.31
2022-12-24T10:20:55.936Z,77.48
2022-12-24T10:23:33.430Z,77.38
2022-12-24T10:26:12.605Z,77.60
2022-12-24T10:28:49.010Z,77.65
2022-12-24T10:31:20.681Z,77.71
2022-12-24T10:33:55.088Z,77.85
2022-12-24T10:36:29.118Z,77.79
2022-12-24T10:38:59.132Z,77.95
2022-12-24T10:41:30.310Z,77.86
2022-12-24T10:44:01.850Z,77.79
2022-12-24T10:46:36.307Z,77.68
2022-12-24T10:49:08.281Z,78.35
2022-12-24T10:51:43.538Z,77.68
2022-12-24T10:54:20.872Z,78.01
2022-12-24T10:57:00.416Z,77.73
2022-12-24T10:59:35.478Z,77.52
2022-12-24T11:02:04.652Z,77.47
2022-12-24T11:04:46.938Z,77.63
2022-12-24T11:07:21.956Z,78.05
2022-12-24T11:09:58.397Z,77.81
2022-12-24T11:12:30.818Z,77.63
2022-12-24T11:15:05.527Z,77.86
2022-12-24T11:17:40.158Z,77.86
2022-12-24T11:20:18.522Z,78.04
2022-12-24T11:22:51.872Z,77.76
2022-12-24T11:25:24.124Z,77.70
2022-12-24T11:27:53.723Z,77.56
2022-12-24T11:30:30.556Z,77.67
2022-12-24T11:33:25.885Z,77.54
2022-12-24T11:36:07.778Z,77.47
2022-12-24T11:38:38.220Z,77.26
2022-12-24T11:41:13.353Z,77.42
2022-12-24T11:43:48.348Z,77.19
2022-12-24T11:46:23.474Z,77.34
2022-12-24T11:49:21.757Z,77.35
2022-12-24T11:52:22.660Z,77.31
2022-12-24T11:55:15.457Z,77.08
2022-12-24T11:57:54.416Z,77.06
2022-12-24T12:00:25.607Z,77.10
2022-12-24T12:03:01.028Z,77.11
2022-12-24T12:05:33.661Z,77.11
2022-12-24T12:08:15.270Z,77.17
2022-12-24T12:10:46.529Z,77.17
2022-12-24T12:13:18.858Z,77.25
2022-12-24T12:15:50.907Z,77.21
2022-12-24T12:18:25.641Z,77.28
2022-12-24T12:21:01.880Z,77.19
2022-12-24T12:23:35.405Z,77.22
2022-12-24T12:26:11.935Z,76.91
2022-12-24T12:28:46.939Z,76.79
2022-12-24T12:31:22.390Z,77.03
2022-12-24T12:33:58.818Z,76.62
2022-12-24T12:36:33.873Z,76.81
2022-12-24T12:39:03.343Z,77.03
2022-12-24T12:41:49.794Z,77.16
2022-12-24T12:44:45.430Z,76.75
2022-12-24T12:47:32.955Z,76.64
2022-12-24T12:50:12.528Z,76.45
2022-12-24T12:52:59.969Z,76.59
2022-12-24T12:55:40.458Z,76.73
2022-12-24T12:58:20.496Z,76.56
2022-12-24T13:00:54.003Z,76.47
2022-12-24T13:04:01.523Z,76.47
2022-12-24T13:06:57.161Z,76.35
2022-12-24T13:09:58.581Z,75.99
2022-12-24T13:12:42.409Z,76.17
2022-12-24T13:15:41.321Z,76.07
2022-12-24T13:18:31.416Z,75.91
2022-12-24T13:21:00.535Z,75.87
2022-12-24T13:23:31.276Z,75.80
2022-12-24T13:26:00.952Z,75.89
2022-12-24T13:28:37.230Z,75.69
2022-12-24T13:31:30.359Z,75.68
2022-12-24T13:34:02.509Z,75.67
2022-12-24T13:37:06.681Z,75.66
2022-12-24T13:40:15.857Z,75.42
2022-12-24T13:43:13.956Z,75.23
2022-12-24T13:45:53.130Z,75.27
2022-12-24T13:48:32.606Z,75.27
2022-12-24T13:51:02.772Z,75.21
2022-12-24T13:53:35.733Z,75.08
2022-12-24T13:56:10.960Z,75.39
2022-12-24T13:58:44.916Z,75.35
2022-12-24T14:01:18.405Z,75.15
2022-12-24T14:03:50.327Z,75.13
2022-12-24T14:06:26.200Z,75.12
2022-12-24T14:08:58.557Z,74.92
2022-12-24T14:11:34.644Z,74.81
2022-12-24T14:14:27.138Z,74.97
2022-12-24T14:16:59.615Z,74.68
2022-12-24T14:19:39.928Z,74.74
2022-12-24T14:22:25.673Z,74.68
2022-12-24T14:24:58.917Z,74.64
2022-12-24T14:27:39.921Z,74.45
2022-12-24T14:30:19.615Z,74.50
2022-12-24T14:32:50.859Z,74.48
2022-12-24T14:35:22.239Z,74.38
2022-12-24T14:37:58.263Z,74.37
2022-12-24T14:40:30.249Z,74.42
2022-12-24T14:43:09.436Z,74.28
2022-12-24T14:45:45.930Z,74.30
2022-12-24T14:48:23.406Z,74.28
2022-12-24T14:51:11.015Z,74.31
2022-12-24T14:53:57.881Z,74.09
2022-12-24T14:56:27.059Z,74.13
2022-12-24T14:59:04.478Z,74.01
2022-12-24T15:01:35.316Z,73.91
2022-12-24T15:04:15.432Z,73.97
2022-12-24T15:06:49.414Z,74.09
2022-12-24T15:09:21.432Z,74.07
2022-12-24T15:11:53.248Z,73.87
2022-12-24T15:14:26.385Z,74.19
2022-12-24T15:17:00.271Z,74.09
2022-12-24T15:19:35.724Z,74.23
2022-12-24T15:22:05.876Z,74.22
2022-12-24T15:24:37.402Z,74.40
2022-12-24T15:27:17.856Z,74.64
2022-12-24T15:29:50.816Z,74.51
2022-12-24T15:32:21.864Z,74.55
2022-12-24T15:34:52.975Z,74.97
2022-12-24T15:37:24.379Z,74.82
2022-12-24T15:39:57.742Z,74.93
2022-12-24T15:42:28.997Z,74.90
2022-12-24T15:45:03.794Z,75.02
2022-12-24T15:47:38.887Z,75.00
2022-12-24T15:50:18.642Z,75.37
2022-12-24T15:53:18.684Z,75.21
2022-12-24T15:55:41.903Z,75.19
2022-12-24T15:58:19.396Z,75.42
2022-12-24T16:01:05.285Z,75.55
2022-12-24T16:03:35.466Z,75.66
2022-12-24T16:06:06.389Z,75.57
2022-12-24T16:08:36.543Z,75.91
2022-12-24T16:11:15.971Z,75.89
2022-12-24T16:13:59.390Z,75.84
2022-12-24T16:16:39.152Z,75.88
2022-12-24T16:19:17.404Z,75.61
2022-12-24T16:21:46.940Z,75.78
2022-12-24T16:24:19.755Z,75.86
2022-12-24T16:26:49.706Z,75.93
2022-12-24T16:29:19.597Z,76.10
2022-12-24T16:31:53.835Z,76.08
2022-12-24T16:34:26.676Z,75.99
2022-12-24T16:36:56.793Z,76.11
2022-12-24T16:39:30.877Z,76.59
2022-12-24T16:42:19.870Z,76.17
2022-12-24T16:44:49.559Z,76.07
2022-12-24T16:47:23.586Z,76.25
2022-12-24T16:49:53.231Z,76.09
2022-12-24T16:52:23.988Z,76.08
2022-12-24T16:54:53.272Z,75.99
2022-12-24T16:57:25.190Z,76.25
2022-12-24T16:59:54.532Z,76.24
2022-12-24T17:02:26.139Z,76.31
2022-12-24T17:04:55.791Z,76.27
2022-12-24T17:07:25.104Z,76.40
2022-12-24T17:09:54.270Z,76.16
2022-12-24T17:12:23.534Z,76.16
2022-12-24T17:14:52.658Z,76.17
2022-12-24T17:17:26.229Z,76.27
2022-12-24T17:19:55.885Z,76.28
2022-12-24T17:22:27.324Z,76.30
2022-12-24T17:24:57.276Z,76.28
2022-12-24T17:27:26.724Z,76.28
2022-12-24T17:29:55.902Z,76.30
2022-12-24T17:32:27.273Z,76.33
2022-12-24T17:34:56.432Z,76.31
2022-12-24T17:37:25.704Z,76.24
2022-12-24T17:39:54.855Z,76.39
2022-12-24T17:42:24.107Z,76.34
2022-12-24T17:44:53.211Z,76.26
2022-12-24T17:47:22.583Z,76.25
2022-12-24T17:49:53.097Z,76.45
2022-12-24T17:52:22.492Z,76.48
2022-12-24T17:54:51.444Z,76.55
2022-12-24T17:57:20.839Z,76.52
2022-12-24T17:59:49.841Z,76.49
2022-12-24T18:02:19.370Z,76.52
2022-12-24T18:04:50.281Z,76.54
2022-12-24T18:07:21.091Z,76.50
2022-12-24T18:09:50.218Z,76.35
2022-12-24T18:12:19.455Z,76.37
2022-12-24T18:14:49.024Z,76.57
2022-12-24T18:17:18.321Z,76.54
2022-12-24T18:19:47.299Z,76.41
2022-12-24T18:22:18.022Z,76.34
2022-12-24T18:24:48.527Z,76.34
2022-12-24T18:27:17.809Z,76.28
2022-12-24T18:29:46.813Z,76.05
2022-12-24T18:32:16.982Z,76.17
2022-12-24T18:34:46.991Z,76.21
2022-12-24T18:37:16.263Z,76.26
2022-12-24T18:39:47.013Z,76.15
2022-12-24T18:42:16.380Z,76.13
2022-12-24T18:44:45.751Z,76.27
2022-12-24T18:47:15.290Z,76.09
2022-12-24T18:49:44.352Z,76.07
2022-12-24T18:52:17.901Z,76.36
2022-12-24T18:54:52.784Z,76.50
2022-12-24T18:57:22.173Z,76.68
2022-12-24T18:59:51.317Z,76.48
2022-12-24T19:02:20.768Z,76.60
2022-12-24T19:04:49.998Z,76.50
2022-12-24T19:07:19.278Z,76.52
2022-12-24T19:09:48.707Z,76.47
2022-12-24T19:12:19.425Z,76.48
2022-12-24T19:14:50.070Z,76.32
2022-12-24T19:17:19.376Z,76.81
2022-12-24T19:19:48.461Z,76.41
2022-12-24T19:22:17.838Z,76.51
2022-12-24T19:24:46.965Z,76.88
2022-12-24T19:27:16.273Z,76.81
2022-12-24T19:29:46.777Z,76.66
2022-12-24T19:32:16.086Z,76.48
2022-12-24T19:34:45.067Z,76.69
2022-12-24T19:37:14.337Z,76.48
2022-12-24T19:39:43.912Z,76.48
2022-12-24T19:42:13.220Z,76.71
2022-12-24T19:44:42.185Z,76.90
2022-12-24T19:47:13.088Z,76.81
2022-12-24T19:49:42.243Z,76.64
2022-12-24T19:52:11.499Z,76.58
2022-12-24T19:54:41.348Z,76.65
2022-12-24T19:57:11.600Z,76.35
2022-12-24T19:59:40.855Z,76.43
2022-12-24T20:02:13.560Z,76.51
2022-12-24T20:04:42.910Z,76.40
2022-12-24T20:07:12.263Z,76.53
2022-12-24T20:09:41.450Z,76.55
2022-12-24T20:12:10.741Z,76.44
2022-12-24T20:14:40.099Z,76.68
2022-12-24T20:17:09.726Z,76.58
2022-12-24T20:19:40.561Z,76.52
2022-12-24T20:22:10.040Z,76.48
2022-12-24T20:24:40.022Z,76.55
2022-12-24T20:27:09.341Z,76.31
2022-12-24T20:29:38.482Z,76.31
2022-12-24T20:32:08.281Z,76.73
2022-12-24T20:34:37.619Z,76.84
2022-12-24T20:37:08.247Z,76.69
2022-12-24T20:39:37.673Z,76.60
2022-12-24T20:42:07.052Z,76.64
2022-12-24T20:44:36.041Z,76.45
2022-12-24T20:47:05.563Z,76.58
2022-12-24T20:49:34.537Z,76.57
2022-12-24T20:52:03.829Z,76.67
2022-12-24T20:54:34.192Z,76.52
2022-12-24T20:57:03.485Z,76.54
2022-12-24T20:59:32.525Z,76.44
2022-12-24T21:02:02.008Z,76.73
2022-12-24T21:04:31.257Z,76.68
2022-12-24T21:07:00.541Z,76.38
2022-12-24T21:09:29.690Z,76.27
2022-12-24T21:12:17.796Z,76.28
2022-12-24T21:14:47.117Z,76.56
2022-12-24T21:17:16.417Z,76.40
2022-12-24T21:19:45.557Z,76.35
2022-12-24T21:22:14.932Z,76.59
2022-12-24T21:24:44.141Z,76.26
2022-12-24T21:27:14.799Z,76.30
2022-12-24T21:29:44.237Z,76.30
2022-12-24T21:32:13.628Z,76.34
2022-12-24T21:34:42.761Z,76.32
2022-12-24T21:37:12.282Z,76.05
2022-12-24T21:39:41.418Z,76.27
2022-12-24T21:42:10.757Z,76.18
2022-12-24T21:44:41.615Z,76.20
2022-12-24T21:47:11.073Z,76.20
2022-12-24T21:49:57.815Z,76.23
2022-12-24T21:52:27.244Z,76.26
2022-12-24T21:54:55.210Z,76.15
2022-12-24T21:57:42.051Z,76.11
2022-12-24T22:00:26.971Z,76.19
2022-12-24T22:02:59.371Z,76.24
2022-12-24T22:05:29.530Z,76.37
2022-12-24T22:08:16.538Z,76.33
2022-12-24T22:11:03.091Z,76.29
2022-12-24T22:13:33.478Z,76.52
2022-12-24T22:16:03.625Z,76.54
2022-12-24T22:18:32.917Z,76.72
2022-12-24T22:21:03.594Z,76.60
2022-12-24T22:23:37.070Z,76.71
2022-12-24T22:26:12.913Z,76.65
2022-12-24T22:28:42.597Z,76.79
2022-12-24T22:31:19.376Z,77.19
2022-12-24T22:33:49.075Z,76.90
2022-12-24T22:36:18.449Z,77.27
2022-12-24T22:38:47.809Z,77.03
2022-12-24T22:41:17.299Z,77.12
2022-12-24T22:43:47.466Z,77.00
2022-12-24T22:46:16.867Z,76.63
2022-12-24T22:48:47.725Z,76.72
2022-12-24T22:51:18.800Z,76.89
2022-12-24T22:53:48.654Z,76.88
2022-12-24T22:56:20.833Z,76.86
2022-12-24T22:58:53.904Z,77.01
2022-12-24T23:01:34.315Z,76.76
2022-12-24T23:04:06.479Z,76.71
2022-12-24T23:06:36.767Z,76.90
2022-12-24T23:09:07.978Z,76.83
2022-12-24T23:11:37.579Z,76.87
2022-12-24T23:14:23.990Z,76.90
2022-12-24T23:16:53.134Z,76.80
2022-12-24T23:19:23.772Z,76.94
2022-12-24T23:21:52.888Z,76.45
2022-12-24T23:24:22.154Z,76.63
2022-12-24T23:26:51.155Z,76.58
2022-12-24T23:29:20.501Z,76.59
2022-12-24T23:31:49.554Z,76.68
2022-12-24T23:34:18.924Z,76.76
2022-12-24T23:36:49.293Z,76.56
2022-12-24T23:39:18.847Z,76.50
2022-12-24T23:41:47.843Z,76.58
2022-12-24T23:44:17.119Z,76.57
2022-12-24T23:46:46.184Z,76.67
2022-12-24T23:49:16.040Z,76.69
2022-12-24T23:51:45.193Z,76.62
2022-12-24T23:54:15.807Z,76.49
2022-12-24T23:56:44.953Z,76.65
2022-12-24T23:59:14.359Z,76.69
